Time;durP1;ratioP1;P1;durP2;ratioP2;P2;SDS_P1;SDS_P2;PMS_P1;PMS_P2;Temp;Humidity;BMP_temperature;BMP_pressure;BME280_temperature;BME280_humidity;BME280_pressure;Samples;Min_cycle;Max_cycle;Signal;HPM_P1;HPM_P2
2023/05/01 00:00:21;;;;;;;18.70;7.50;;;;;;;7.80;58.51;99654.67;107800;1308;22159;-51
2023/05/01 00:02:46;;;;;;;21.00;7.70;;;;;;;7.77;58.26;99658.79;107802;1308;23293;-50
2023/05/01 00:05:11;;;;;;;20.50;7.10;;;;;;;7.74;58.11;99654.72;107797;1308;22183;-54
2023/05/01 00:07:37;;;;;;;20.70;7.30;;;;;;;7.72;58.65;99658.80;107791;1308;22268;-53
2023/05/01 00:10:02;;;;;;;18.60;7.90;;;;;;;7.73;58.62;99659.50;107809;1308;22251;-49
2023/05/01 00:12:28;;;;;;;15.50;7.60;;;;;;;7.72;58.74;99659.17;107803;1308;22223;-51
2023/05/01 00:14:53;;;;;;;20.50;8.10;;;;;;;7.68;58.51;99659.48;107775;1308;22337;-49
2023/05/01 00:17:19;;;;;;;13.80;7.90;;;;;;;7.64;58.94;99657.02;107804;1308;22225;-52
2023/05/01 00:19:44;;;;;;;19.00;7.60;;;;;;;7.60;59.28;99656.47;107781;1308;22592;-53
2023/05/01 00:22:09;;;;;;;17.90;7.80;;;;;;;7.57;58.94;99657.08;107789;1308;23220;-48
2023/05/01 00:24:35;;;;;;;14.70;8.00;;;;;;;7.55;59.10;99656.99;107817;1308;22381;-49
2023/05/01 00:27:00;;;;;;;19.20;8.10;;;;;;;7.51;59.48;99652.77;107816;1308;22986;-50
2023/05/01 00:29:25;;;;;;;20.20;8.00;;;;;;;7.49;59.87;99653.88;107572;1308;22244;-50
2023/05/01 00:31:51;;;;;;;15.80;8.50;;;;;;;7.43;60.16;99653.06;107781;1308;23228;-49
2023/05/01 00:34:16;;;;;;;22.60;8.40;;;;;;;7.37;60.69;99657.14;107839;1308;22240;-49
2023/05/01 00:36:41;;;;;;;14.10;8.60;;;;;;;7.31;60.85;99656.14;107786;1308;22351;-50
2023/05/01 00:39:07;;;;;;;19.10;8.10;;;;;;;7.33;60.36;99656.23;107815;1308;22231;-50
2023/05/01 00:41:35;;;;;;;16.50;8.00;;;;;;;7.30;60.81;99653.39;107815;1308;22241;-52
2023/05/01 00:44:01;;;;;;;17.30;8.40;;;;;;;7.30;60.98;99647.43;107805;1308;22215;-52
2023/05/01 00:46:30;;;;;;;18.50;8.30;;;;;;;7.28;60.99;99649.95;107820;1308;22407;-46
2023/05/01 00:48:57;;;;;;;18.70;8.00;;;;;;;7.24;61.02;99648.52;107807;1308;22171;-53
2023/05/01 00:51:23;;;;;;;19.10;8.30;;;;;;;7.21;61.15;99650.56;107815;1308;22449;-53
2023/05/01 00:53:48;;;;;;;18.10;8.50;;;;;;;7.20;61.34;99649.89;107797;1308;22293;-53
2023/05/01 00:56:14;;;;;;;17.20;9.00;;;;;;;7.22;61.26;99648.60;107796;1308;23193;-50
2023/05/01 00:58:40;;;;;;;19.80;9.00;;;;;;;7.22;61.10;99643.72;107787;1308;22504;-52
2023/05/01 01:01:08;;;;;;;19.70;8.20;;;;;;;7.22;61.15;99644.23;107824;1308;22224;-50
2023/05/01 01:03:34;;;;;;;20.00;9.10;;;;;;;7.22;61.61;99644.59;107809;1308;23152;-50
2023/05/01 01:06:08;;;;;;;24.00;9.70;;;;;;;7.25;61.77;99643.77;107801;1308;22260;-49
2023/05/01 01:08:48;;;;;;;18.70;7.70;;;;;;;7.29;61.88;99643.63;107830;1308;22378;-49
2023/05/01 01:11:22;;;;;;;16.90;8.00;;;;;;;7.32;61.41;99641.09;107807;1308;22222;-52
2023/05/01 01:13:57;;;;;;;16.40;7.60;;;;;;;7.37;60.43;99638.65;107805;1308;22238;-51
2023/05/01 01:16:32;;;;;;;17.80;7.50;;;;;;;7.38;60.56;99640.02;107820;1308;22279;-49
2023/05/01 01:19:16;;;;;;;20.50;8.30;;;;;;;7.41;60.54;99640.95;107848;1308;22226;-52
2023/05/01 01:21:46;;;;;;;18.60;7.90;;;;;;;7.43;60.49;99640.16;107803;1308;22204;-51
2023/05/01 01:24:43;;;;;;;22.50;9.20;;;;;;;7.45;60.72;99637.48;107804;1308;22374;-55
2023/05/01 01:27:46;;;;;;;16.50;7.70;;;;;;;7.46;60.23;99637.42;107806;1308;22223;-50
2023/05/01 01:30:33;;;;;;;16.60;8.00;;;;;;;7.48;59.80;99630.05;107820;1308;23449;-52
2023/05/01 01:33:26;;;;;;;17.40;8.20;;;;;;;7.46;59.87;99627.84;107819;1308;22395;-54
2023/05/01 01:35:57;;;;;;;19.30;8.30;;;;;;;7.38;60.59;99632.85;107835;1308;22237;-53
2023/05/01 01:38:29;;;;;;;17.90;7.20;;;;;;;7.36;60.50;99633.46;107826;1308;22967;-49
2023/05/01 01:41:05;;;;;;;15.90;7.70;;;;;;;7.35;61.02;99629.82;107593;1308;22480;-52
2023/05/01 01:43:37;;;;;;;15.00;7.70;;;;;;;7.36;61.22;99627.50;107781;1308;23090;-49
2023/05/01 01:46:05;;;;;;;18.20;7.80;;;;;;;7.37;61.32;99630.63;107827;1308;22546;-54
2023/05/01 01:48:35;;;;;;;20.40;7.50;;;;;;;7.35;61.23;99628.09;107818;1308;22931;-50
2023/05/01 01:51:05;;;;;;;17.50;7.60;;;;;;;7.32;61.37;99629.05;107818;1308;22262;-51
2023/05/01 01:53:33;;;;;;;15.80;7.80;;;;;;;7.32;61.53;99629.95;107808;1308;22535;-49
2023/05/01 01:56:03;;;;;;;18.20;7.90;;;;;;;7.30;61.54;99629.81;107814;1308;23229;-53
2023/05/01 01:58:30;;;;;;;14.30;7.40;;;;;;;7.28;61.64;99626.05;107944;1308;22858;-50
2023/05/01 02:00:57;;;;;;;15.80;7.70;;;;;;;7.25;61.72;99625.80;107918;1308;22244;-52
2023/05/01 02:03:24;;;;;;;18.00;8.00;;;;;;;7.24;61.59;99627.42;107956;1308;22385;-50
2023/05/01 02:05:53;;;;;;;22.10;8.30;;;;;;;7.22;61.62;99625.04;107947;1308;23058;-55
2023/05/01 02:08:20;;;;;;;18.80;8.20;;;;;;;7.17;62.23;99627.48;107907;1308;22285;-50
2023/05/01 02:10:47;;;;;;;17.30;8.20;;;;;;;7.10;62.23;99626.70;107917;1308;22374;-51
2023/05/01 02:13:14;;;;;;;13.40;7.40;;;;;;;7.06;63.24;99625.80;107939;1307;22387;-52
2023/05/01 02:15:40;;;;;;;19.80;8.30;;;;;;;7.03;63.47;99626.08;107905;1308;22218;-54
2023/05/01 02:18:06;;;;;;;19.10;7.60;;;;;;;7.01;63.26;99626.32;107891;1308;22344;-54
2023/05/01 02:20:32;;;;;;;17.20;8.60;;;;;;;6.93;63.13;99625.55;107897;1308;23040;-53
2023/05/01 02:22:58;;;;;;;15.60;8.00;;;;;;;6.90;64.06;99621.46;107928;1308;22412;-52
2023/05/01 02:25:26;;;;;;;16.20;7.70;;;;;;;6.89;64.58;99616.81;107922;1308;22905;-51
2023/05/01 02:27:56;;;;;;;14.20;7.40;;;;;;;6.87;64.74;99616.20;107915;1308;22233;-53
2023/05/01 02:30:22;;;;;;;18.70;8.40;;;;;;;6.83;65.47;99615.97;107918;1308;22915;-52
2023/05/01 02:32:47;;;;;;;21.20;8.60;;;;;;;6.80;65.35;99621.31;107910;1308;22215;-52
2023/05/01 02:35:12;;;;;;;19.30;8.40;;;;;;;6.78;65.43;99618.05;107930;1308;22386;-53
2023/05/01 02:37:38;;;;;;;20.80;7.70;;;;;;;6.76;64.82;99622.16;107912;1308;22455;-50
2023/05/01 02:40:06;;;;;;;17.20;8.90;;;;;;;6.74;65.20;99620.45;107934;1308;22304;-55
2023/05/01 02:43:41;;;;;;;16.90;8.00;;;;;;;6.79;65.66;99615.05;105934;1311;545387;-45
2023/05/01 02:46:09;;;;;;;18.10;8.30;;;;;;;6.77;65.46;99613.23;107346;1313;22216;-49
2023/05/01 02:48:37;;;;;;;16.50;7.50;;;;;;;6.74;65.68;99611.40;107357;1313;23074;-51
2023/05/01 02:51:03;;;;;;;16.10;8.00;;;;;;;6.73;65.45;99611.61;107365;1313;22274;-48
2023/05/01 02:53:29;;;;;;;15.00;8.00;;;;;;;6.72;65.64;99606.94;107346;1313;23281;-53
2023/05/01 02:55:55;;;;;;;19.20;8.00;;;;;;;6.70;65.77;99608.41;107359;1313;22313;-50
2023/05/01 02:58:20;;;;;;;16.90;7.50;;;;;;;6.69;66.04;99610.35;107366;1311;162015;-52
2023/05/01 03:00:48;;;;;;;18.10;7.60;;;;;;;6.67;65.74;99607.45;107500;1311;22228;-54
2023/05/01 03:03:14;;;;;;;20.70;7.20;;;;;;;6.68;65.66;99606.38;107490;1311;22209;-48
2023/05/01 03:05:40;;;;;;;19.90;8.30;;;;;;;6.70;65.47;99608.90;107491;1311;22423;-49
2023/05/01 03:08:06;;;;;;;13.60;7.90;;;;;;;6.72;65.50;99612.17;107486;1311;22994;-50
2023/05/01 03:10:31;;;;;;;18.10;8.20;;;;;;;6.71;65.99;99611.32;107502;1311;22300;-52
2023/05/01 03:12:56;;;;;;;20.30;7.70;;;;;;;6.67;65.53;99612.34;107615;1310;22498;-48
2023/05/01 03:15:22;;;;;;;17.80;6.80;;;;;;;6.65;65.95;99610.66;107666;1310;22249;-50
2023/05/01 03:17:47;;;;;;;22.50;8.00;;;;;;;6.62;66.17;99610.77;107633;1310;23169;-48
2023/05/01 03:20:12;;;;;;;20.50;8.30;;;;;;;6.61;66.11;99612.55;107662;1310;22903;-50
2023/05/01 03:22:38;;;;;;;16.80;7.80;;;;;;;6.60;66.10;99612.94;107646;1310;24257;-48
2023/05/01 03:25:04;;;;;;;14.60;8.20;;;;;;;6.61;65.76;99611.48;107641;1310;22329;-51
2023/05/01 03:27:29;;;;;;;18.10;8.30;;;;;;;6.64;65.86;99612.80;107640;1310;22235;-51
2023/05/01 03:29:55;;;;;;;16.20;8.00;;;;;;;6.64;66.04;99613.30;107661;1310;22239;-54
2023/05/01 03:32:21;;;;;;;16.60;8.40;;;;;;;6.65;66.12;99612.41;107677;1310;22857;-54
2023/05/01 03:34:46;;;;;;;17.60;7.70;;;;;;;6.66;66.08;99613.60;107503;1310;22222;-51
2023/05/01 03:37:12;;;;;;;16.40;8.20;;;;;;;6.65;66.40;99612.95;107692;1310;22257;-47
2023/05/01 03:39:37;;;;;;;14.20;7.60;;;;;;;6.63;66.68;99612.46;107674;1310;22692;-51
2023/05/01 03:42:03;;;;;;;23.10;8.70;;;;;;;6.63;67.05;99608.63;107655;1310;22211;-53
2023/05/01 03:44:28;;;;;;;17.70;8.20;;;;;;;6.62;67.27;99611.27;107801;1309;22676;-52
2023/05/01 03:46:53;;;;;;;19.20;7.90;;;;;;;6.62;66.98;99611.83;107774;1309;23304;-54
2023/05/01 03:49:18;;;;;;;17.80;8.30;;;;;;;6.63;66.95;99610.73;107798;1308;22928;-48
2023/05/01 03:51:44;;;;;;;18.20;8.00;;;;;;;6.63;66.55;99608.30;107807;1308;22844;-50
2023/05/01 03:54:09;;;;;;;18.50;7.80;;;;;;;6.66;65.91;99606.99;107781;1308;23040;-50
2023/05/01 03:56:35;;;;;;;20.30;7.80;;;;;;;6.67;65.59;99608.34;107807;1308;23233;-51
2023/05/01 03:59:01;;;;;;;15.30;7.80;;;;;;;6.67;66.19;99607.14;107803;1293;22254;-48
2023/05/01 04:01:27;;;;;;;17.30;7.80;;;;;;;6.67;65.84;99608.15;107790;1308;22539;-51
2023/05/01 04:03:52;;;;;;;13.70;7.70;;;;;;;6.66;65.90;99610.11;107794;1308;22883;-52
2023/05/01 04:06:18;;;;;;;15.60;7.40;;;;;;;6.67;66.25;99608.70;107795;1308;22934;-50
2023/05/01 04:08:43;;;;;;;17.70;7.70;;;;;;;6.69;65.72;99609.84;107801;1308;22275;-54
2023/05/01 04:11:09;;;;;;;15.20;7.60;;;;;;;6.70;65.77;99609.28;107798;1308;22219;-52
2023/05/01 04:13:35;;;;;;;17.00;8.30;;;;;;;6.72;66.42;99607.80;107813;1308;22409;-48
2023/05/01 04:16:00;;;;;;;16.90;8.00;;;;;;;6.74;66.52;99605.12;107750;1308;22255;-48
2023/05/01 04:18:26;;;;;;;19.00;7.90;;;;;;;6.77;66.30;99603.82;107804;1308;23076;-49
2023/05/01 04:20:51;;;;;;;26.40;9.60;;;;;;;6.79;66.09;99603.60;107790;1308;22442;-48
2023/05/01 04:23:17;;;;;;;17.80;8.00;;;;;;;6.80;65.92;99603.19;107793;1308;22250;-47
2023/05/01 04:25:42;;;;;;;17.40;8.00;;;;;;;6.81;66.03;99603.14;107778;1308;22446;-49
2023/05/01 04:28:10;;;;;;;16.60;8.10;;;;;;;6.85;65.77;99601.97;107821;1308;22492;-48
2023/05/01 04:30:35;;;;;;;;;;;;;;;6.88;65.92;99603.78;107138;1308;22557;-52
2023/05/01 04:33:00;;;;;;;16.80;7.40;;;;;;;6.92;65.41;99605.55;107849;1308;22220;-50
2023/05/01 04:35:26;;;;;;;13.60;6.80;;;;;;;6.97;64.24;99606.59;107839;1308;22304;-53
2023/05/01 04:37:51;;;;;;;14.80;7.70;;;;;;;7.00;64.37;99605.80;107814;1308;23068;-55
2023/05/01 04:40:17;;;;;;;16.30;7.90;;;;;;;7.06;64.22;99606.80;107814;1308;22989;-48
2023/05/01 04:42:42;;;;;;;16.10;8.00;;;;;;;7.09;63.95;99613.83;107830;1308;22305;-51
2023/05/01 04:45:08;;;;;;;18.40;7.80;;;;;;;7.14;63.65;99616.48;107847;1308;22320;-50
2023/05/01 04:47:33;;;;;;;17.50;7.80;;;;;;;7.17;63.36;99615.66;107873;1308;22301;-47
2023/05/01 04:49:59;;;;;;;18.50;7.30;;;;;;;7.20;63.25;99613.63;107850;1308;22220;-51
2023/05/01 04:52:24;;;;;;;15.30;7.80;;;;;;;7.23;63.36;99616.62;107851;1308;22433;-49
2023/05/01 04:54:49;;;;;;;24.00;8.20;;;;;;;7.27;63.14;99621.41;107847;1308;22246;-50
2023/05/01 04:57:15;;;;;;;17.30;7.90;;;;;;;7.31;63.07;99621.05;107809;1308;22556;-53
2023/05/01 04:59:40;;;;;;;18.70;7.90;;;;;;;7.39;63.06;99619.92;107823;1308;22444;-50
2023/05/01 05:02:06;;;;;;;14.50;7.30;;;;;;;7.42;63.17;99623.47;107859;1308;22464;-50
2023/05/01 05:04:32;;;;;;;24.50;8.10;;;;;;;7.46;62.76;99622.26;107852;1308;22223;-49
2023/05/01 05:06:57;;;;;;;17.60;8.50;;;;;;;7.49;62.61;99623.03;107859;1308;22224;-51
2023/05/01 05:09:23;;;;;;;16.30;8.00;;;;;;;7.51;62.85;99620.86;107852;1308;22215;-50
2023/05/01 05:11:48;;;;;;;16.90;8.60;;;;;;;7.55;62.82;99617.05;107833;1308;22365;-49
2023/05/01 05:14:13;;;;;;;15.60;7.60;;;;;;;7.60;62.79;99617.18;107839;1308;22391;-46
2023/05/01 05:16:39;;;;;;;15.80;7.40;;;;;;;7.63;62.63;99624.23;107844;1308;22598;-52
2023/05/01 05:19:04;;;;;;;18.10;8.10;;;;;;;7.67;61.95;99625.30;107858;1308;22393;-50
2023/05/01 05:21:30;;;;;;;18.30;7.30;;;;;;;7.70;61.19;99625.38;107868;1308;23961;-50
2023/05/01 05:23:56;;;;;;;14.60;7.50;;;;;;;7.73;60.93;99625.29;107547;1308;22575;-50
2023/05/01 05:26:22;;;;;;;16.00;7.20;;;;;;;7.76;60.72;99626.02;107534;1308;23041;-50
2023/05/01 05:28:47;;;;;;;15.60;8.30;;;;;;;7.79;60.62;99631.50;107837;1308;22260;-48
2023/05/01 05:31:12;;;;;;;15.70;7.30;;;;;;;7.83;60.98;99624.02;107837;1308;22390;-52
2023/05/01 05:33:38;;;;;;;16.50;8.20;;;;;;;7.87;60.72;99618.94;107852;1308;22411;-53
2023/05/01 05:36:03;;;;;;;15.40;7.20;;;;;;;7.92;60.74;99616.86;107828;1308;22413;-50
2023/05/01 05:38:28;;;;;;;18.30;7.80;;;;;;;7.95;60.33;99614.65;107842;1308;22362;-50
2023/05/01 05:40:54;;;;;;;17.60;8.50;;;;;;;7.97;60.39;99613.84;107840;1308;24396;-48
2023/05/01 05:43:19;;;;;;;14.40;7.80;;;;;;;8.01;60.34;99609.30;107866;1308;22963;-51
2023/05/01 05:45:45;;;;;;;19.40;8.20;;;;;;;8.06;60.38;99608.95;107854;1308;22294;-48
2023/05/01 05:48:10;;;;;;;17.00;8.60;;;;;;;8.11;60.06;99608.25;107858;1308;22409;-46
2023/05/01 05:50:35;;;;;;;16.30;7.70;;;;;;;8.16;59.93;99609.83;107861;1308;22214;-49
2023/05/01 05:53:01;;;;;;;21.80;7.90;;;;;;;8.21;59.83;99609.94;107839;1308;22246;-46
2023/05/01 05:55:26;;;;;;;20.10;8.30;;;;;;;8.24;59.69;99609.10;107840;1308;22396;-53
2023/05/01 05:57:52;;;;;;;16.50;8.30;;;;;;;8.26;59.57;99606.59;107834;1308;22459;-52
2023/05/01 06:00:18;;;;;;;18.60;7.80;;;;;;;8.31;59.32;99606.73;107830;1308;22981;-50
2023/05/01 06:02:43;;;;;;;15.00;7.80;;;;;;;8.35;59.37;99606.55;107859;1308;22439;-48
2023/05/01 06:05:09;;;;;;;17.60;8.10;;;;;;;8.41;59.13;99601.44;107858;1308;22210;-51
2023/05/01 06:07:36;;;;;;;13.60;7.70;;;;;;;8.44;59.50;99603.23;107833;1308;22293;-51
2023/05/01 06:10:04;;;;;;;15.50;7.10;;;;;;;8.51;58.90;99599.15;107837;1308;22283;-48
2023/05/01 06:12:32;;;;;;;18.10;7.80;;;;;;;8.56;59.09;99598.41;107854;1308;22230;-53
2023/05/01 06:14:58;;;;;;;18.40;8.00;;;;;;;8.60;58.89;99596.66;107855;1308;22292;-55
2023/05/01 06:17:23;;;;;;;19.70;7.80;;;;;;;8.65;58.87;99599.77;107873;1308;22788;-49
2023/05/01 06:19:51;;;;;;;21.00;7.40;;;;;;;8.71;59.00;99601.09;107878;1308;22459;-46
2023/05/01 06:22:17;;;;;;;25.40;7.80;;;;;;;8.76;58.72;99604.01;107842;1308;23099;-52
2023/05/01 06:24:43;;;;;;;13.80;7.50;;;;;;;8.82;58.08;99604.27;107850;1308;22409;-45
2023/05/01 06:27:08;;;;;;;13.50;7.30;;;;;;;8.88;58.47;99604.89;107850;1308;22219;-47
2023/05/01 06:29:34;;;;;;;15.90;7.90;;;;;;;8.96;57.71;99601.77;107855;1308;22934;-49
2023/05/01 06:31:59;;;;;;;12.30;6.40;;;;;;;9.02;57.79;99601.00;107866;1308;22276;-49
2023/05/01 06:34:24;;;;;;;14.20;6.90;;;;;;;9.09;57.14;99605.37;107836;1308;22905;-50
2023/05/01 06:36:50;;;;;;;9.70;6.10;;;;;;;9.15;57.14;99605.81;107864;1308;22210;-51
2023/05/01 06:39:15;;;;;;;15.90;7.00;;;;;;;9.22;57.29;99605.69;107823;1308;22274;-45
2023/05/01 06:41:40;;;;;;;17.80;6.60;;;;;;;9.29;56.96;99607.67;107741;1309;23078;-49
2023/05/01 06:44:06;;;;;;;22.80;7.00;;;;;;;9.35;56.03;99607.20;107766;1309;22216;-49
2023/05/01 06:46:31;;;;;;;10.10;6.10;;;;;;;9.40;55.88;99605.75;107734;1309;23025;-51
2023/05/01 06:48:56;;;;;;;14.50;5.70;;;;;;;9.47;55.78;99605.96;107748;1309;22254;-50
2023/05/01 06:51:21;;;;;;;8.40;5.70;;;;;;;9.54;55.47;99602.67;107751;1309;22213;-50
2023/05/01 06:53:47;;;;;;;13.20;6.00;;;;;;;9.58;55.40;99601.62;107747;1309;22880;-51
2023/05/01 06:56:12;;;;;;;15.30;6.50;;;;;;;9.63;54.95;99597.70;107728;1309;23408;-51
2023/05/01 06:58:37;;;;;;;11.10;5.90;;;;;;;9.71;55.05;99599.95;107726;1309;22429;-50
2023/05/01 07:01:03;;;;;;;16.50;6.20;;;;;;;9.78;54.44;99598.92;107707;1309;22370;-50
2023/05/01 07:03:28;;;;;;;11.30;5.40;;;;;;;9.85;53.84;99589.48;107745;1309;22644;-48
2023/05/01 07:05:54;;;;;;;11.50;5.40;;;;;;;9.92;53.58;99592.66;107700;1309;22228;-51
2023/05/01 07:08:20;;;;;;;13.80;4.80;;;;;;;9.99;53.60;99596.89;107718;1309;22228;-54
2023/05/01 07:10:46;;;;;;;13.50;5.40;;;;;;;10.06;52.76;99599.91;107749;1309;22236;-53
2023/05/01 07:13:11;;;;;;;14.60;5.10;;;;;;;10.11;51.67;99592.11;107723;1309;22223;-54
2023/05/01 07:15:37;;;;;;;7.50;4.50;;;;;;;10.20;52.29;99595.18;107755;1308;22996;-51
2023/05/01 07:18:04;;;;;;;9.40;4.30;;;;;;;10.26;51.69;99593.28;107748;1309;22207;-50
2023/05/01 07:20:31;;;;;;;10.30;4.60;;;;;;;10.34;52.22;99590.98;107742;1309;22226;-49
2023/05/01 07:22:56;;;;;;;8.10;4.80;;;;;;;10.41;52.12;99591.55;107758;1308;22378;-52
2023/05/01 07:25:21;;;;;;;12.60;4.80;;;;;;;10.48;51.55;99591.05;107741;1309;22255;-52
2023/05/01 07:27:47;;;;;;;12.80;5.00;;;;;;;10.53;50.62;99592.69;107742;1308;22400;-49
2023/05/01 07:30:12;;;;;;;10.10;4.30;;;;;;;10.60;50.87;99594.98;107775;1309;22248;-53
2023/05/01 07:32:37;;;;;;;5.30;2.80;;;;;;;10.67;49.98;99598.98;107758;1309;23012;-49
2023/05/01 07:35:03;;;;;;;8.20;3.40;;;;;;;10.71;48.08;99597.90;107780;1309;22210;-51
2023/05/01 07:37:29;;;;;;;4.40;3.10;;;;;;;10.76;48.19;99596.45;107778;1308;22235;-51
2023/05/01 07:39:55;;;;;;;10.90;3.50;;;;;;;10.85;49.01;99599.88;107789;1308;22244;-51
2023/05/01 07:42:20;;;;;;;10.80;3.50;;;;;;;10.95;49.36;99605.49;107745;1309;22333;-48
2023/05/01 07:44:49;;;;;;;6.90;4.30;;;;;;;11.03;48.95;99603.13;107765;1308;22421;-52
2023/05/01 07:47:14;;;;;;;10.20;4.30;;;;;;;11.11;49.16;99601.48;107781;1308;22220;-54
2023/05/01 07:49:40;;;;;;;7.70;3.40;;;;;;;11.19;49.12;99603.88;107775;1309;22111;-52
2023/05/01 07:52:08;;;;;;;7.70;3.00;;;;;;;11.25;48.16;99608.10;107806;1308;22905;-49
2023/05/01 07:54:34;;;;;;;4.70;3.00;;;;;;;11.29;46.25;99608.63;107829;1308;22954;-51
2023/05/01 07:57:00;;;;;;;11.60;3.60;;;;;;;11.35;47.54;99602.52;107832;1308;22300;-53
2023/05/01 07:59:26;;;;;;;8.20;3.50;;;;;;;11.38;47.08;99606.00;107813;1308;22223;-52
2023/05/01 08:01:51;;;;;;;6.30;2.40;;;;;;;11.46;46.60;99605.39;107821;1308;22407;-50
2023/05/01 08:04:17;;;;;;;6.40;2.90;;;;;;;11.53;45.77;99605.23;107792;1308;22219;-53
2023/05/01 08:06:43;;;;;;;8.20;3.40;;;;;;;11.59;47.05;99605.05;107803;1308;22226;-48
2023/05/01 08:09:08;;;;;;;7.80;3.30;;;;;;;11.64;45.83;99603.92;107819;1308;22408;-50
2023/05/01 08:11:34;;;;;;;8.20;4.00;;;;;;;11.70;46.87;99601.67;107807;1308;23112;-54
2023/05/01 08:13:59;;;;;;;13.70;4.20;;;;;;;11.75;46.39;99602.95;107812;1308;23096;-50
2023/05/01 08:16:25;;;;;;;11.20;3.70;;;;;;;11.84;46.13;99597.89;107807;1308;22346;-52
2023/05/01 08:18:50;;;;;;;5.70;3.90;;;;;;;11.96;46.29;99596.39;107826;1308;22435;-48
2023/05/01 08:21:16;;;;;;;9.10;4.10;;;;;;;12.07;45.51;99595.73;107785;1308;22295;-54
2023/05/01 08:23:41;;;;;;;11.00;4.30;;;;;;;12.15;45.81;99597.77;107787;1308;22246;-50
2023/05/01 08:26:06;;;;;;;6.80;3.50;;;;;;;12.23;45.89;99590.98;107811;1308;23267;-53
2023/05/01 08:28:34;;;;;;;8.20;3.60;;;;;;;12.29;45.05;99590.84;107813;1308;22402;-48
2023/05/01 08:30:59;;;;;;;;;;;;;;;12.38;45.23;99588.21;107824;1308;22532;-50
2023/05/01 08:33:24;;;;;;;6.50;3.60;;;;;;;12.50;45.37;99585.91;107816;1308;22325;-52
2023/05/01 08:35:50;;;;;;;10.40;4.40;;;;;;;12.65;45.02;99590.29;107805;1308;22172;-54
2023/05/01 08:38:15;;;;;;;6.60;4.20;;;;;;;12.75;44.91;99592.05;107802;1308;22247;-53
2023/05/01 08:40:49;;;;;;;9.40;4.20;;;;;;;12.86;44.05;99588.58;107792;1308;22383;-48
2023/05/01 08:43:16;;;;;;;10.10;4.20;;;;;;;12.98;43.86;99589.40;107824;1308;22979;-54
2023/05/01 08:45:41;;;;;;;8.80;3.70;;;;;;;13.08;42.61;99590.05;107795;1308;22228;-50
2023/05/01 08:48:09;;;;;;;9.40;3.80;;;;;;;13.25;43.27;99589.02;107800;1308;22303;-53
2023/05/01 08:50:35;;;;;;;;;;;;;;;13.43;42.65;99592.36;107808;1308;22407;-52
2023/05/01 08:53:05;;;;;;;6.80;4.00;;;;;;;13.61;41.79;99588.94;107803;1308;22413;-50
2023/05/01 08:55:32;;;;;;;7.90;3.70;;;;;;;13.81;40.68;99581.13;107769;1308;22294;-50
2023/05/01 08:57:58;;;;;;;8.00;4.20;;;;;;;14.00;40.17;99581.13;107807;1308;22223;-48
2023/05/01 09:00:24;;;;;;;8.50;3.60;;;;;;;14.19;40.03;99580.65;107812;1308;22964;-51
2023/05/01 09:02:50;;;;;;;8.10;3.60;;;;;;;14.43;40.20;99576.20;107796;1308;22187;-55
2023/05/01 09:05:17;;;;;;;8.50;3.90;;;;;;;14.67;39.20;99582.37;107807;1308;22113;-58
2023/05/01 09:07:46;;;;;;;8.90;4.00;;;;;;;14.88;39.48;99585.02;107814;1308;23269;-50
2023/05/01 09:10:14;;;;;;;10.60;4.20;;;;;;;15.15;39.22;99580.51;107792;1308;22259;-54
2023/05/01 09:12:40;;;;;;;;;;;;;;;15.48;37.86;99576.13;107814;1308;22424;-49
2023/05/01 09:15:06;;;;;;;6.70;3.60;;;;;;;15.81;37.44;99570.93;107787;1308;22251;-52
2023/05/01 09:17:33;;;;;;;9.20;4.00;;;;;;;16.18;36.94;99568.45;107814;1308;22220;-47
2023/05/01 09:20:01;;;;;;;6.50;3.50;;;;;;;16.58;35.95;99568.42;107801;1308;22218;-52
2023/05/01 09:22:26;;;;;;;7.90;3.80;;;;;;;17.06;35.31;99567.09;107799;1308;22215;-49
2023/05/01 09:24:52;;;;;;;7.70;3.80;;;;;;;17.65;33.04;99567.95;107756;1308;22776;-49
2023/05/01 09:27:18;;;;;;;5.50;3.40;;;;;;;18.27;33.70;99567.34;107764;1308;22406;-51
2023/05/01 09:29:47;;;;;;;8.40;3.50;;;;;;;18.82;32.67;99565.66;107777;1308;22224;-47
2023/05/01 09:32:19;;;;;;;6.70;3.40;;;;;;;19.51;30.20;99565.93;107793;1308;22231;-49
2023/05/01 09:34:46;;;;;;;13.20;3.70;;;;;;;20.22;28.81;99568.09;107813;1308;23151;-53
2023/05/01 09:37:37;;;;;;;7.80;3.60;;;;;;;20.78;28.01;99562.84;107803;1308;23101;-56
2023/05/01 09:40:11;;;;;;;8.00;3.20;;;;;;;21.14;28.04;99559.23;107770;1308;22504;-49
2023/05/01 09:42:38;;;;;;;7.80;3.30;;;;;;;21.66;26.40;99564.83;107777;1308;22236;-54
2023/05/01 09:45:11;;;;;;;7.30;3.40;;;;;;;22.19;25.74;99566.08;107804;1308;22393;-48
2023/05/01 09:47:36;;;;;;;7.80;3.40;;;;;;;22.59;24.04;99559.44;107780;1308;22290;-48
2023/05/01 09:50:03;;;;;;;6.90;3.20;;;;;;;23.07;24.87;99558.09;107797;1308;23003;-52
2023/05/01 09:52:30;;;;;;;5.90;3.00;;;;;;;23.50;23.81;99561.30;107781;1308;22207;-49
2023/05/01 09:55:12;;;;;;;7.50;4.10;;;;;;;23.75;23.32;99559.60;107784;1308;22246;-51
2023/05/01 09:57:38;;;;;;;5.70;2.90;;;;;;;24.12;22.46;99560.27;107795;1308;22373;-52
2023/05/01 10:00:08;;;;;;;6.00;3.30;;;;;;;24.43;22.34;99561.11;107791;1308;22214;-51
2023/05/01 10:02:34;;;;;;;5.00;3.10;;;;;;;24.68;22.29;99559.03;107789;1308;22689;-53
2023/05/01 10:05:00;;;;;;;5.80;3.10;;;;;;;25.19;22.21;99552.19;107810;1308;22703;-55
2023/05/01 10:07:26;;;;;;;5.40;2.60;;;;;;;25.41;21.61;99554.77;107783;1308;22222;-52
2023/05/01 10:09:52;;;;;;;5.50;2.80;;;;;;;25.76;21.35;99554.60;107797;1308;22206;-51
2023/05/01 10:12:28;;;;;;;7.10;3.20;;;;;;;25.75;20.90;99558.98;107804;1308;22239;-51
2023/05/01 10:14:55;;;;;;;3.60;3.00;;;;;;;26.00;19.80;99556.08;107774;1308;22223;-53
2023/05/01 10:17:21;;;;;;;4.60;2.90;;;;;;;26.08;20.20;99548.44;107631;1308;22403;-52
2023/05/01 10:19:47;;;;;;;4.90;2.70;;;;;;;26.34;19.62;99547.71;107803;1308;22849;-51
2023/05/01 10:22:13;;;;;;;6.00;3.00;;;;;;;26.42;19.39;99548.52;107765;1308;22219;-54
2023/05/01 10:24:39;;;;;;;6.00;2.90;;;;;;;26.59;19.94;99545.32;107799;1308;22240;-52
2023/05/01 10:27:06;;;;;;;5.50;2.80;;;;;;;27.10;20.13;99541.50;107781;1308;23008;-52
2023/05/01 10:29:35;;;;;;;5.10;3.10;;;;;;;27.17;19.62;99532.23;107791;1308;22238;-51
2023/05/01 10:32:03;;;;;;;4.60;2.40;;;;;;;27.28;18.87;99534.49;107812;1308;22207;-52
2023/05/01 10:34:31;;;;;;;3.00;2.30;;;;;;;27.41;17.74;99533.23;107788;1308;22112;-48
2023/05/01 10:37:01;;;;;;;5.60;2.50;;;;;;;27.40;17.46;99532.31;107789;1308;22297;-49
2023/05/01 10:39:34;;;;;;;5.80;2.90;;;;;;;27.87;18.28;99532.14;107798;1308;22266;-52
2023/05/01 10:42:12;;;;;;;4.40;2.20;;;;;;;27.86;18.62;99529.53;107775;1308;22225;-49
2023/05/01 10:44:39;;;;;;;4.30;2.70;;;;;;;27.92;16.66;99530.48;107785;1308;22241;-52
2023/05/01 10:47:22;;;;;;;3.30;2.30;;;;;;;28.10;16.27;99523.93;107799;1307;23576;-51
2023/05/01 10:50:20;;;;;;;4.00;2.70;;;;;;;28.38;16.69;99517.58;107756;1308;22228;-50
2023/05/01 10:53:10;;;;;;;3.20;2.10;;;;;;;28.80;16.71;99513.52;107127;1315;22299;-55
2023/05/01 10:55:43;;;;;;;6.50;2.50;;;;;;;29.29;16.38;99512.16;107123;1315;22425;-48
2023/05/01 10:58:12;;;;;;;8.50;4.00;;;;;;;29.46;16.33;99510.14;107118;1315;22298;-51
2023/05/01 11:00:38;;;;;;;6.90;2.70;;;;;;;29.45;16.16;99509.02;107142;1315;22270;-50
2023/05/01 11:03:21;;;;;;;4.30;2.70;;;;;;;29.54;15.94;99507.09;107102;1315;22473;-51
2023/05/01 11:05:59;;;;;;;5.40;2.80;;;;;;;29.69;16.10;99504.38;107149;1315;22216;-51
2023/05/01 11:08:34;;;;;;;3.50;2.50;;;;;;;29.90;15.61;99500.86;107128;1315;22284;-53
2023/05/01 11:11:18;;;;;;;5.40;3.00;;;;;;;30.00;14.91;99501.83;107126;1315;22252;-51
2023/05/01 11:14:03;;;;;;;4.80;3.40;;;;;;;30.10;14.73;99500.88;107123;1315;22250;-48
2023/05/01 11:16:40;;;;;;;5.80;2.60;;;;;;;30.36;15.05;99495.98;107135;1315;22402;-50
2023/05/01 11:19:22;;;;;;;4.00;2.40;;;;;;;30.74;15.03;99495.01;107132;1315;23019;-52
2023/05/01 11:21:48;;;;;;;7.40;2.70;;;;;;;30.52;14.71;99494.58;107110;1315;22512;-52
2023/05/01 11:24:15;;;;;;;5.30;2.70;;;;;;;30.82;15.08;99489.65;107123;1315;22259;-53
2023/05/01 11:26:41;;;;;;;6.70;2.50;;;;;;;31.07;14.51;99485.19;107127;1315;22252;-54
2023/05/01 11:29:11;;;;;;;3.40;2.20;;;;;;;31.35;14.66;99476.38;107599;1308;22788;-48